Avon, North Carolina
Current Conditions -  °F | °C
As of 11:51 AM on Friday 21 Nov 2014 (Local Time) from KHSE Reporting Station
Clear Clear  
Wind Chill: 42°   Ceiling: Unl
Heat Index: 46°   Visibility: 10mi
Dew Point: 29°   Wind: 8mph
Humidity: 51%   Direction: 10°N
Pressure: 30.38"   Gusts: 20mph
Location:  35.35°N, 75.51°W
Report Text: KHSE 211651Z AUTO 01007G17KT 330V060 10SM CLR 08/M02 A3038 RMK AO2 SLP288 T00781017 TSNO
Loading
Personal Weather Stations






























Interactive Weather Map New forecast layout! Learn more

10-Day Weather Forecast

Advertisements
Track Severe Weather on mobile